Time;durP1;ratioP1;P1;durP2;ratioP2;P2;SDS_P1;SDS_P2;PMS_P1;PMS_P2;Temp;Humidity;BMP_temperature;BMP_pressure;BME280_temperature;BME280_humidity;BME280_pressure;Samples;Min_cycle;Max_cycle;Signal;HPM_P1;HPM_P2
2022/11/22 00:01:25;;;;;;;5.78;1.40;;;5.50;99.90;;;;;;5114394;27;20036;-64
2022/11/22 00:03:51;;;;;;;8.10;1.48;;;5.50;99.90;;;;;;5114761;28;20380;-64
2022/11/22 00:06:18;;;;;;;8.30;1.52;;;5.50;99.90;;;;;;5119970;27;20047;-63
2022/11/22 00:08:45;;;;;;;7.05;1.40;;;5.50;99.90;;;;;;5137626;27;20462;-63
2022/11/22 00:11:12;;;;;;;6.30;1.45;;;5.50;99.90;;;;;;5136648;27;20039;-64
2022/11/22 00:13:38;;;;;;;8.82;1.88;;;5.40;99.90;;;;;;5136350;27;20071;-63
2022/11/22 00:16:05;;;;;;;7.80;1.40;;;5.40;99.90;;;;;;5137606;27;20474;-64
2022/11/22 00:18:32;;;;;;;4.90;1.48;;;5.40;99.90;;;;;;5132760;27;20031;-63
2022/11/22 00:20:59;;;;;;;8.40;1.80;;;5.40;99.90;;;;;;5114173;27;20043;-64
2022/11/22 00:23:25;;;;;;;6.60;1.40;;;5.40;99.90;;;;;;5134317;27;20074;-65
2022/11/22 00:25:52;;;;;;;12.85;2.05;;;5.40;99.90;;;;;;5124103;27;20035;-66
2022/11/22 00:28:19;;;;;;;6.97;1.80;;;5.40;99.90;;;;;;5129438;27;20062;-64
2022/11/22 00:30:46;;;;;;;7.93;1.80;;;5.40;99.90;;;;;;5136920;27;20088;-66
2022/11/22 00:33:13;;;;;;;8.55;1.63;;;5.40;99.90;;;;;;5118099;27;20045;-64
2022/11/22 00:35:39;;;;;;;7.80;1.58;;;5.40;99.90;;;;;;5136452;27;20130;-64
2022/11/22 00:38:06;;;;;;;7.75;1.50;;;5.40;99.90;;;;;;5100595;27;20039;-64
2022/11/22 00:40:33;;;;;;;7.03;1.52;;;5.30;99.90;;;;;;5137415;27;20104;-66
2022/11/22 00:43:00;;;;;;;6.97;1.70;;;5.30;99.90;;;;;;5118403;27;20499;-64
2022/11/22 00:45:27;;;;;;;7.35;1.63;;;5.30;99.90;;;;;;5112570;28;20040;-63
2022/11/22 00:47:53;;;;;;;5.47;1.20;;;5.30;99.90;;;;;;5111554;27;20077;-63
2022/11/22 00:50:20;;;;;;;5.68;2.13;;;5.30;99.90;;;;;;5137132;27;20114;-63
2022/11/22 00:52:47;;;;;;;5.88;1.30;;;5.30;99.90;;;;;;5116468;28;20071;-63
2022/11/22 00:55:14;;;;;;;5.55;1.33;;;5.30;99.90;;;;;;5098250;28;20046;-64
2022/11/22 00:57:40;;;;;;;7.47;1.00;;;5.30;99.90;;;;;;5113931;27;20994;-63
2022/11/22 01:00:07;;;;;;;8.57;1.60;;;5.30;99.90;;;;;;5135053;27;20039;-64
2022/11/22 01:02:34;;;;;;;7.07;1.52;;;5.30;99.90;;;;;;5136567;27;20043;-63
2022/11/22 01:05:00;;;;;;;4.95;1.40;;;5.30;99.90;;;;;;5136619;27;20080;-63
2022/11/22 01:07:27;;;;;;;9.30;1.40;;;5.20;99.90;;;;;;5136088;27;20051;-64
2022/11/22 01:09:54;;;;;;;6.78;1.30;;;5.20;99.90;;;;;;5136287;27;20054;-64
2022/11/22 01:12:20;;;;;;;7.20;1.10;;;5.20;99.90;;;;;;5137038;27;20152;-63
2022/11/22 01:14:47;;;;;;;7.72;1.27;;;5.20;99.90;;;;;;5136636;27;20039;-64
2022/11/22 01:17:14;;;;;;;9.18;1.40;;;5.20;99.90;;;;;;5136021;27;20446;-65
2022/11/22 01:19:41;;;;;;;5.88;1.23;;;5.20;99.90;;;;;;5122626;27;20063;-64
2022/11/22 01:22:07;;;;;;;6.43;1.58;;;5.20;99.90;;;;;;5116155;28;20390;-63
2022/11/22 01:24:34;;;;;;;9.23;1.58;;;5.20;99.90;;;;;;5114707;28;20075;-64
2022/11/22 01:27:01;;;;;;;6.90;1.38;;;5.20;99.90;;;;;;5098772;28;20059;-64
2022/11/22 01:29:28;;;;;;;5.93;1.00;;;5.20;99.90;;;;;;5115665;28;20044;-65
2022/11/22 01:31:55;;;;;;;6.68;1.70;;;5.20;99.90;;;;;;5115517;28;20119;-65
2022/11/22 01:34:21;;;;;;;5.00;1.27;;;5.20;99.90;;;;;;5132696;27;20031;-64
2022/11/22 01:36:48;;;;;;;7.15;1.40;;;5.20;99.90;;;;;;5136539;27;20031;-65
2022/11/22 01:39:15;;;;;;;5.03;1.30;;;5.20;99.90;;;;;;5135580;27;20043;-65
2022/11/22 01:41:41;;;;;;;8.30;1.52;;;5.20;99.90;;;;;;5136598;27;20031;-64
2022/11/22 01:44:08;;;;;;;10.27;2.00;;;5.30;99.90;;;;;;5136489;27;20466;-64
2022/11/22 01:46:35;;;;;;;4.43;1.05;;;5.30;99.90;;;;;;5100786;27;20466;-64
2022/11/22 01:49:02;;;;;;;6.63;1.10;;;5.30;99.90;;;;;;5136051;27;20039;-63
2022/11/22 01:51:28;;;;;;;7.45;1.23;;;5.40;99.90;;;;;;5135497;27;20442;-63
2022/11/22 01:53:55;;;;;;;4.40;1.23;;;5.40;99.90;;;;;;5135664;27;20486;-62
2022/11/22 01:56:22;;;;;;;4.90;1.10;;;5.40;99.90;;;;;;5135812;27;20117;-65
2022/11/22 01:58:49;;;;;;;3.58;1.05;;;5.40;99.90;;;;;;5112718;27;20046;-63
2022/11/22 02:01:15;;;;;;;7.15;1.50;;;5.40;99.90;;;;;;5135535;27;20427;-64
2022/11/22 02:03:42;;;;;;;4.88;1.00;;;5.40;99.90;;;;;;5135539;27;20125;-64
2022/11/22 02:06:09;;;;;;;8.02;1.30;;;5.50;99.90;;;;;;5135706;27;20449;-64
2022/11/22 02:08:36;;;;;;;5.68;1.00;;;5.40;99.90;;;;;;5135755;27;20423;-65
2022/11/22 02:11:02;;;;;;;7.45;1.20;;;5.50;99.90;;;;;;5135588;27;20035;-64
2022/11/22 02:13:29;;;;;;;5.28;1.13;;;5.50;99.90;;;;;;5114266;27;20134;-64
2022/11/22 02:15:56;;;;;;;4.07;0.93;;;5.50;99.90;;;;;;5133984;27;20126;-63
2022/11/22 02:18:22;;;;;;;3.40;1.00;;;5.50;99.90;;;;;;5116084;27;20096;-63
2022/11/22 02:20:49;;;;;;;8.35;1.42;;;5.50;99.90;;;;;;5133508;27;20119;-64
2022/11/22 02:23:16;;;;;;;9.27;1.00;;;5.50;99.90;;;;;;5134167;27;20043;-64
2022/11/22 02:25:42;;;;;;;7.72;0.93;;;5.50;99.90;;;;;;5133164;27;20038;-63
2022/11/22 02:28:09;;;;;;;5.15;0.98;;;5.60;99.90;;;;;;5133616;27;20046;-62
2022/11/22 02:30:36;;;;;;;6.00;1.33;;;5.60;99.90;;;;;;5134091;27;21028;-63
2022/11/22 02:33:03;;;;;;;6.18;1.23;;;5.60;99.90;;;;;;5133845;27;20404;-62
2022/11/22 02:35:29;;;;;;;4.95;1.23;;;5.60;99.90;;;;;;5134844;27;20118;-63
2022/11/22 02:37:56;;;;;;;6.13;0.95;;;5.60;99.90;;;;;;5133860;27;20035;-64
2022/11/22 02:40:23;;;;;;;5.05;1.00;;;5.60;99.90;;;;;;5133749;27;20043;-64
2022/11/22 02:42:50;;;;;;;6.45;1.38;;;5.60;99.90;;;;;;5132584;27;20542;-65
2022/11/22 02:45:17;;;;;;;5.38;1.70;;;5.70;99.90;;;;;;5133564;27;20058;-63
2022/11/22 02:47:44;;;;;;;6.95;1.00;;;5.70;99.90;;;;;;5133831;27;20488;-63
2022/11/22 02:50:10;;;;;;;6.50;1.02;;;5.70;99.90;;;;;;5133913;27;20122;-62
2022/11/22 02:52:37;;;;;;;5.30;1.13;;;5.70;99.90;;;;;;5133207;27;20430;-65
2022/11/22 02:55:04;;;;;;;7.00;1.13;;;5.70;99.90;;;;;;5133347;27;20070;-64
2022/11/22 02:57:31;;;;;;;4.63;1.35;;;5.70;99.90;;;;;;5133813;27;20038;-64
2022/11/22 02:59:58;;;;;;;5.05;1.23;;;5.70;99.90;;;;;;5133462;27;20092;-64
2022/11/22 03:02:24;;;;;;;7.05;1.45;;;5.70;99.90;;;;;;5133488;27;20100;-65
2022/11/22 03:04:51;;;;;;;5.60;1.20;;;5.70;99.90;;;;;;5133179;27;20492;-65
2022/11/22 03:07:18;;;;;;;5.97;1.10;;;5.80;99.90;;;;;;5134124;27;20146;-64
2022/11/22 03:09:45;;;;;;;4.88;1.10;;;5.80;99.90;;;;;;5134333;27;20047;-63
2022/11/22 03:12:11;;;;;;;5.57;1.10;;;5.80;99.90;;;;;;5133902;28;20058;-65
2022/11/22 03:14:38;;;;;;;5.40;1.00;;;5.70;99.90;;;;;;5134432;27;20028;-64
2022/11/22 03:17:05;;;;;;;4.25;1.27;;;5.80;99.90;;;;;;5115050;28;20075;-64
2022/11/22 03:19:31;;;;;;;4.50;1.05;;;5.80;99.90;;;;;;5132655;28;20043;-63
2022/11/22 03:21:58;;;;;;;7.55;1.27;;;5.80;99.90;;;;;;5131878;27;20047;-64
2022/11/22 03:24:25;;;;;;;5.05;1.05;;;5.80;99.90;;;;;;5133155;27;20050;-65
2022/11/22 03:26:52;;;;;;;4.25;1.25;;;5.80;99.90;;;;;;5115373;28;20106;-64
2022/11/22 03:29:19;;;;;;;5.60;1.10;;;5.80;99.90;;;;;;5134293;28;20474;-65
2022/11/22 03:31:45;;;;;;;7.20;1.20;;;5.70;99.90;;;;;;5116091;27;20477;-63
2022/11/22 03:34:12;;;;;;;5.30;0.90;;;5.80;99.90;;;;;;5138019;27;20063;-64
2022/11/22 03:36:39;;;;;;;6.63;1.10;;;5.80;99.90;;;;;;5138763;27;20419;-64
2022/11/22 03:39:06;;;;;;;4.40;0.90;;;5.70;99.90;;;;;;5120848;27;20441;-62
2022/11/22 03:41:32;;;;;;;3.25;1.00;;;5.70;99.90;;;;;;5138647;27;20043;-65
2022/11/22 03:43:59;;;;;;;2.58;0.90;;;5.70;99.90;;;;;;5138442;27;20118;-64
2022/11/22 03:46:26;;;;;;;5.60;1.00;;;5.70;99.90;;;;;;5137868;27;20047;-65
2022/11/22 03:48:52;;;;;;;4.95;0.80;;;5.70;99.90;;;;;;5138231;27;20065;-63
2022/11/22 03:51:19;;;;;;;4.90;0.95;;;5.70;99.90;;;;;;5138680;27;20046;-65
2022/11/22 03:53:46;;;;;;;4.80;0.98;;;5.70;99.90;;;;;;5138518;27;20474;-63
2022/11/22 03:56:13;;;;;;;7.18;1.20;;;5.70;99.90;;;;;;5138102;27;20099;-64
2022/11/22 03:58:39;;;;;;;7.32;1.20;;;5.70;99.90;;;;;;5137670;27;20035;-64
2022/11/22 04:01:06;;;;;;;7.28;0.95;;;5.70;99.90;;;;;;5136463;27;20039;-64
2022/11/22 04:03:40;;;;;;;4.78;0.90;;;5.70;99.90;;;;;;5136930;27;20111;-64
2022/11/22 04:06:07;;;;;;;5.00;1.25;;;5.70;99.90;;;;;;5136635;27;20064;-65
2022/11/22 04:08:33;;;;;;;4.70;0.90;;;5.70;99.90;;;;;;5136515;27;20055;-65
2022/11/22 04:11:00;;;;;;;7.00;0.90;;;5.70;99.90;;;;;;5137667;27;20035;-63
2022/11/22 04:15:05;;;;;;;5.10;1.10;;;5.70;99.90;;;;;;5138616;27;20042;-64
2022/11/22 04:16:14;;;;;;;3.95;0.98;;;5.70;99.90;;;;;;5138007;27;20046;-65
2022/11/22 04:18:40;;;;;;;6.72;1.05;;;5.70;99.90;;;;;;5135983;27;20118;-64
2022/11/22 04:26:38;;;;;;;3.22;1.00;;;5.60;99.90;;;;;;5137342;27;20035;-65
2022/11/22 04:29:05;;;;;;;6.53;0.98;;;5.60;99.90;;;;;;5119167;27;20039;-64
2022/11/22 04:34:21;;;;;;;6.00;0.98;;;5.70;99.90;;;;;;5137481;27;20054;-65
2022/11/22 04:36:48;;;;;;;5.30;1.20;;;5.70;99.90;;;;;;5136966;27;20047;-64
2022/11/22 04:39:15;;;;;;;6.25;1.00;;;5.70;99.90;;;;;;5135174;27;20043;-65
2022/11/22 04:41:42;;;;;;;4.80;1.02;;;5.70;99.90;;;;;;5117490;27;20038;-64
2022/11/22 04:46:54;;;;;;;4.30;1.15;;;5.70;99.90;;;;;;5135146;27;20084;-63
2022/11/22 04:49:20;;;;;;;4.88;1.02;;;5.70;99.90;;;;;;5136295;27;20122;-64
2022/11/22 04:54:32;;;;;;;6.13;1.00;;;5.80;99.90;;;;;;5134828;27;20458;-65
2022/11/22 04:56:59;;;;;;;4.85;0.90;;;5.70;99.90;;;;;;5136425;27;20074;-64
2022/11/22 04:59:26;;;;;;;5.18;1.17;;;5.80;99.90;;;;;;5136066;27;20036;-63
2022/11/22 05:01:53;;;;;;;6.25;1.00;;;5.80;99.90;;;;;;5135011;27;20593;-64
2022/11/22 05:04:20;;;;;;;3.58;0.77;;;5.80;99.90;;;;;;5134113;27;20474;-63
2022/11/22 05:06:47;;;;;;;7.75;1.27;;;5.80;99.90;;;;;;5115580;27;20122;-64
2022/11/22 05:09:14;;;;;;;6.50;1.00;;;5.80;99.90;;;;;;5135613;27;20035;-64
2022/11/22 05:11:40;;;;;;;4.30;1.00;;;5.80;99.90;;;;;;5136119;27;20064;-64
2022/11/22 05:14:07;;;;;;;11.82;1.70;;;5.80;99.90;;;;;;5135877;27;20043;-64
2022/11/22 05:16:34;;;;;;;5.65;1.52;;;5.80;99.90;;;;;;5134511;27;20470;-65
2022/11/22 05:19:00;;;;;;;7.20;1.10;;;5.80;99.90;;;;;;5134882;27;20039;-64
2022/11/22 05:21:27;;;;;;;5.65;1.40;;;5.80;99.90;;;;;;5135392;27;20526;-65
2022/11/22 05:23:54;;;;;;;8.80;1.33;;;5.80;99.90;;;;;;5116228;27;20058;-64
2022/11/22 05:26:21;;;;;;;6.65;0.93;;;5.80;99.90;;;;;;5134674;27;20039;-64
2022/11/22 05:28:48;;;;;;;9.07;1.02;;;5.80;99.90;;;;;;5135066;27;20047;-64
2022/11/22 05:31:15;;;;;;;6.57;0.93;;;5.80;99.90;;;;;;5115958;27;20041;-64
2022/11/22 05:33:42;;;;;;;6.90;1.48;;;5.80;99.90;;;;;;5132828;27;20047;-64
2022/11/22 05:36:08;;;;;;;5.82;1.40;;;5.80;99.90;;;;;;5135335;27;20045;-64
2022/11/22 05:38:36;;;;;;;4.10;0.98;;;5.80;99.90;;;;;;5135228;27;20035;-63
2022/11/22 05:41:03;;;;;;;6.32;1.10;;;5.80;99.90;;;;;;5108203;27;20114;-65
2022/11/22 05:43:29;;;;;;;5.30;1.13;;;5.80;99.90;;;;;;5134333;27;20039;-64
2022/11/22 05:45:56;;;;;;;9.13;1.10;;;5.80;99.90;;;;;;5134579;27;20118;-63
2022/11/22 05:48:23;;;;;;;5.95;1.23;;;5.80;99.90;;;;;;5135648;27;20039;-65
2022/11/22 05:50:50;;;;;;;5.15;0.90;;;5.80;99.90;;;;;;5135644;27;20092;-64
2022/11/22 05:53:16;;;;;;;4.43;0.93;;;5.80;99.90;;;;;;5114477;27;20042;-65
2022/11/22 05:55:43;;;;;;;7.20;1.02;;;5.80;99.90;;;;;;5133930;27;20470;-64
2022/11/22 05:58:10;;;;;;;6.40;1.10;;;5.80;99.90;;;;;;5113666;27;20043;-65
2022/11/22 06:00:37;;;;;;;3.75;0.98;;;5.80;99.90;;;;;;5134841;27;20119;-64
2022/11/22 06:03:03;;;;;;;5.47;1.27;;;5.80;99.90;;;;;;5133690;27;20043;-63
2022/11/22 06:05:30;;;;;;;7.15;1.10;;;5.80;99.90;;;;;;5133602;27;20451;-64
2022/11/22 06:07:58;;;;;;;5.53;0.90;;;5.80;99.90;;;;;;5116038;27;20051;-64
2022/11/22 06:10:24;;;;;;;4.38;0.75;;;5.80;99.90;;;;;;5132317;27;20066;-63
2022/11/22 06:12:51;;;;;;;3.97;0.65;;;5.80;99.90;;;;;;5134341;27;20474;-64
2022/11/22 06:15:18;;;;;;;4.95;1.63;;;5.80;99.90;;;;;;5113545;27;20474;-64
2022/11/22 06:17:45;;;;;;;4.72;1.20;;;5.70;99.90;;;;;;5132961;27;20092;-64
2022/11/22 06:20:11;;;;;;;3.42;0.90;;;5.70;99.90;;;;;;5134177;27;20485;-65
2022/11/22 06:22:38;;;;;;;4.35;0.70;;;5.70;99.90;;;;;;5133319;27;20035;-64
2022/11/22 06:25:05;;;;;;;4.50;0.85;;;5.70;99.90;;;;;;5131794;27;20038;-64
2022/11/22 06:27:32;;;;;;;5.43;1.20;;;5.60;99.90;;;;;;5129778;27;20035;-65
2022/11/22 06:29:58;;;;;;;5.05;0.90;;;5.60;99.90;;;;;;5132843;27;20121;-64
2022/11/22 06:32:25;;;;;;;4.68;0.80;;;5.60;99.90;;;;;;5131419;27;20034;-64
2022/11/22 06:34:52;;;;;;;4.60;0.80;;;5.60;99.90;;;;;;5134221;27;20080;-65
2022/11/22 06:37:18;;;;;;;4.65;0.70;;;5.50;99.90;;;;;;5133799;27;20996;-64
2022/11/22 06:39:45;;;;;;;3.65;0.60;;;5.50;99.90;;;;;;5133475;27;20118;-64
2022/11/22 06:42:12;;;;;;;5.03;0.90;;;5.50;99.90;;;;;;5134711;27;20047;-63
2022/11/22 06:44:39;;;;;;;4.30;1.38;;;5.50;99.90;;;;;;5111315;28;20122;-64
2022/11/22 06:47:05;;;;;;;2.88;0.70;;;5.50;99.90;;;;;;5121031;27;20043;-64
2022/11/22 06:49:32;;;;;;;5.53;1.10;;;5.40;99.90;;;;;;5132702;27;20082;-64
2022/11/22 06:51:59;;;;;;;4.18;0.90;;;5.50;99.90;;;;;;5128856;27;20031;-64
2022/11/22 06:54:25;;;;;;;2.67;0.75;;;5.40;99.90;;;;;;5131240;27;20035;-64
2022/11/22 06:56:52;;;;;;;5.75;0.93;;;5.40;99.90;;;;;;5112341;27;20043;-63
2022/11/22 06:59:19;;;;;;;7.28;1.05;;;5.40;99.90;;;;;;5133451;27;20099;-64
2022/11/22 07:01:46;;;;;;;6.85;1.13;;;5.40;99.90;;;;;;5134600;27;20039;-64
2022/11/22 07:04:12;;;;;;;9.93;1.13;;;5.40;99.90;;;;;;5134276;27;20071;-63
2022/11/22 07:06:39;;;;;;;3.67;0.73;;;5.40;99.90;;;;;;5134130;27;20115;-65
2022/11/22 07:09:06;;;;;;;6.05;1.02;;;5.40;99.90;;;;;;5116463;27;20039;-63
2022/11/22 07:11:33;;;;;;;3.00;0.68;;;5.40;99.90;;;;;;5116427;28;20035;-65
2022/11/22 07:14:00;;;;;;;5.03;0.95;;;5.40;99.90;;;;;;5134394;28;20110;-65
2022/11/22 07:16:34;;;;;;;4.65;1.00;;;5.40;99.90;;;;;;5134315;28;20067;-65
2022/11/22 07:19:00;;;;;;;3.88;0.90;;;5.40;99.90;;;;;;5133259;28;20224;-64
2022/11/22 07:21:27;;;;;;;5.63;1.13;;;5.40;99.90;;;;;;5134555;28;20050;-65
2022/11/22 07:23:54;;;;;;;5.38;1.05;;;5.40;99.90;;;;;;5116259;28;20129;-66
2022/11/22 07:26:20;;;;;;;5.13;1.10;;;5.40;99.90;;;;;;5134097;27;20090;-64
2022/11/22 07:28:47;;;;;;;6.50;1.13;;;5.40;99.90;;;;;;5134630;28;20074;-65
2022/11/22 07:31:14;;;;;;;5.20;1.17;;;5.40;99.90;;;;;;5133220;28;20494;-65
2022/11/22 07:33:41;;;;;;;5.57;1.38;;;5.40;99.90;;;;;;5116142;28;20035;-64
2022/11/22 07:36:08;;;;;;;5.72;1.08;;;5.30;99.90;;;;;;5134406;27;20378;-66
2022/11/22 07:38:34;;;;;;;4.35;1.00;;;5.40;99.90;;;;;;5134674;28;20059;-65
2022/11/22 07:41:01;;;;;;;4.80;1.20;;;5.30;99.90;;;;;;5134073;28;20050;-64
2022/11/22 07:43:28;;;;;;;3.75;1.13;;;5.40;99.90;;;;;;5116439;28;20070;-64
2022/11/22 07:45:55;;;;;;;6.28;1.00;;;5.30;99.90;;;;;;5115254;28;20044;-63
2022/11/22 07:48:21;;;;;;;6.03;1.17;;;5.30;99.90;;;;;;5132820;28;20458;-64
2022/11/22 07:50:48;;;;;;;5.68;1.00;;;5.30;99.90;;;;;;5134155;28;20070;-63
2022/11/22 07:53:15;;;;;;;4.72;1.20;;;5.30;99.90;;;;;;5115970;28;20118;-64
2022/11/22 07:55:41;;;;;;;3.80;0.90;;;5.30;99.90;;;;;;5134234;27;20040;-64
2022/11/22 07:58:08;;;;;;;5.20;1.02;;;5.30;99.90;;;;;;5126849;28;20071;-65
2022/11/22 08:00:35;;;;;;;6.18;1.25;;;5.30;99.90;;;;;;5114249;28;20035;-64
2022/11/22 08:03:02;;;;;;;9.13;1.30;;;5.30;99.90;;;;;;5133204;28;20042;-64
2022/11/22 08:05:28;;;;;;;4.78;0.90;;;5.30;99.90;;;;;;5131473;28;20067;-65
2022/11/22 08:07:55;;;;;;;8.82;1.35;;;5.30;99.90;;;;;;5126025;28;20043;-65
2022/11/22 08:10:22;;;;;;;6.20;1.23;;;5.30;99.90;;;;;;5133341;28;20046;-64
2022/11/22 08:12:49;;;;;;;5.88;1.10;;;5.30;99.90;;;;;;5114288;28;20106;-64
2022/11/22 08:15:16;;;;;;;5.57;1.30;;;5.40;99.90;;;;;;5133584;28;20516;-66
2022/11/22 08:17:42;;;;;;;4.32;0.95;;;5.40;99.90;;;;;;5133542;28;20027;-64
2022/11/22 08:20:09;;;;;;;6.20;1.30;;;5.40;99.90;;;;;;5135539;27;20054;-63
2022/11/22 08:22:36;;;;;;;7.65;2.10;;;5.50;99.90;;;;;;5134499;27;20035;-65
2022/11/22 08:25:03;;;;;;;6.57;1.10;;;5.50;99.90;;;;;;5136738;27;20066;-62
2022/11/22 08:27:29;;;;;;;5.63;1.23;;;5.60;99.90;;;;;;5137009;27;20161;-64
2022/11/22 08:29:56;;;;;;;6.55;1.52;;;5.60;99.90;;;;;;5135992;27;20078;-63
2022/11/22 08:32:23;;;;;;;6.72;1.17;;;5.60;99.90;;;;;;5099656;28;20478;-62
2022/11/22 08:34:49;;;;;;;7.32;1.23;;;5.70;99.90;;;;;;5116358;28;20097;-62
2022/11/22 08:37:16;;;;;;;7.72;1.17;;;5.70;99.90;;;;;;5134378;27;20499;-61
2022/11/22 08:39:43;;;;;;;5.05;1.33;;;5.80;99.90;;;;;;5128981;27;20486;-62
2022/11/22 08:42:09;;;;;;;7.25;1.40;;;5.90;99.90;;;;;;5131756;27;20118;-63
2022/11/22 08:44:36;;;;;;;8.35;1.35;;;5.90;99.90;;;;;;5121008;27;20031;-62
2022/11/22 08:47:03;;;;;;;5.28;1.10;;;5.90;99.90;;;;;;5125086;27;20039;-63
2022/11/22 08:49:30;;;;;;;7.65;1.55;;;6.00;99.90;;;;;;5132711;27;20031;-64
2022/11/22 08:51:57;;;;;;;6.13;1.67;;;6.00;99.90;;;;;;5133734;27;20035;-63
2022/11/22 08:54:24;;;;;;;4.50;1.50;;;6.10;99.90;;;;;;5112705;27;20031;-62
2022/11/22 08:56:50;;;;;;;5.28;1.45;;;6.10;99.90;;;;;;5135450;27;20043;-62
2022/11/22 08:59:17;;;;;;;6.50;1.38;;;6.20;99.90;;;;;;5131189;27;20036;-64
2022/11/22 09:01:44;;;;;;;6.30;1.77;;;6.30;99.90;;;;;;5133804;27;20082;-62
2022/11/22 09:04:11;;;;;;;8.65;1.60;;;6.40;99.90;;;;;;5133245;27;20112;-64
2022/11/22 09:06:38;;;;;;;5.75;1.80;;;6.40;99.90;;;;;;5133790;27;20050;-63
2022/11/22 09:09:25;;;;;;;3.58;1.38;;;6.50;99.90;;;;;;5123903;27;20039;-65
2022/11/22 09:12:07;;;;;;;8.85;1.17;;;6.60;99.90;;;;;;5130366;27;20482;-62
2022/11/22 09:14:34;;;;;;;4.47;1.23;;;6.70;99.90;;;;;;5133770;27;20063;-62
2022/11/22 09:17:01;;;;;;;6.88;1.00;;;6.70;99.90;;;;;;5135799;27;20448;-64
2022/11/22 09:19:27;;;;;;;5.63;0.93;;;6.80;99.90;;;;;;5132703;27;20035;-64
2022/11/22 09:21:55;;;;;;;5.85;1.33;;;6.80;99.90;;;;;;5133680;27;20521;-63
2022/11/22 09:24:22;;;;;;;8.13;1.23;;;6.90;99.90;;;;;;5132575;27;20436;-63
2022/11/22 09:26:48;;;;;;;5.82;1.10;;;6.90;99.90;;;;;;5132752;27;20035;-62
2022/11/22 09:29:15;;;;;;;10.13;1.30;;;6.90;99.90;;;;;;5134488;27;20062;-64
2022/11/22 09:31:42;;;;;;;3.58;1.08;;;6.90;99.90;;;;;;5133864;27;20066;-63
2022/11/22 09:34:09;;;;;;;3.97;0.90;;;6.90;99.90;;;;;;5115267;27;20039;-63
2022/11/22 09:36:35;;;;;;;4.35;1.45;;;6.90;99.90;;;;;;5133362;27;20088;-64
2022/11/22 09:39:02;;;;;;;3.28;1.77;;;7.00;99.90;;;;;;5135386;27;20039;-63
2022/11/22 09:41:29;;;;;;;12.40;2.80;;;7.00;99.90;;;;;;5116882;27;20039;-63
2022/11/22 09:43:56;;;;;;;3.78;1.17;;;7.00;99.90;;;;;;5133297;27;20062;-63
2022/11/22 09:46:22;;;;;;;4.60;1.52;;;7.10;99.90;;;;;;5112639;27;20523;-65
2022/11/22 09:48:49;;;;;;;3.75;0.98;;;7.10;99.90;;;;;;5113563;27;20031;-62
2022/11/22 09:51:16;;;;;;;5.47;1.08;;;7.20;99.90;;;;;;5132299;27;20039;-63
2022/11/22 09:53:43;;;;;;;2.78;0.95;;;7.20;99.90;;;;;;5134643;27;20411;-63
2022/11/22 09:56:09;;;;;;;4.57;0.80;;;7.20;99.90;;;;;;5130156;27;20061;-63
2022/11/22 09:58:36;;;;;;;4.00;1.02;;;7.30;99.90;;;;;;5130125;27;20075;-65
2022/11/22 10:01:03;;;;;;;2.88;1.00;;;7.30;99.90;;;;;;5132763;27;20059;-64
2022/11/22 10:03:30;;;;;;;2.45;0.70;;;7.30;99.90;;;;;;5133376;27;20119;-65
2022/11/22 10:05:56;;;;;;;3.03;0.90;;;7.30;99.90;;;;;;5134112;27;20474;-64
2022/11/22 10:08:23;;;;;;;6.60;1.10;;;7.30;99.90;;;;;;5132617;27;20123;-63
2022/11/22 10:10:50;;;;;;;2.53;0.90;;;7.30;99.90;;;;;;5133742;27;20038;-65
2022/11/22 10:13:16;;;;;;;4.60;1.05;;;7.40;99.90;;;;;;5131596;27;20560;-64
2022/11/22 10:15:43;;;;;;;3.65;0.95;;;7.40;99.90;;;;;;5134564;27;20050;-63
2022/11/22 10:18:10;;;;;;;4.07;0.80;;;7.40;99.90;;;;;;5127739;27;20043;-64
2022/11/22 10:20:37;;;;;;;3.30;1.10;;;7.40;99.90;;;;;;5113723;27;20042;-63
2022/11/22 10:23:04;;;;;;;3.40;0.90;;;7.40;99.90;;;;;;5113416;27;20442;-65
2022/11/22 10:25:31;;;;;;;4.38;1.08;;;7.40;99.90;;;;;;5133479;27;20473;-64
2022/11/22 10:27:57;;;;;;;5.03;0.80;;;7.40;99.90;;;;;;5133459;27;20095;-64
2022/11/22 10:30:26;;;;;;;4.82;1.05;;;7.40;99.90;;;;;;5128805;27;20159;-64
2022/11/22 10:32:53;;;;;;;4.30;0.80;;;7.40;99.90;;;;;;5130915;27;20115;-64
2022/11/22 10:35:20;;;;;;;3.33;1.02;;;7.40;99.90;;;;;;5132181;27;20084;-64
2022/11/22 10:37:47;;;;;;;3.90;1.02;;;7.40;99.90;;;;;;5112775;27;20050;-65
2022/11/22 10:40:14;;;;;;;4.75;0.82;;;7.50;99.90;;;;;;5134217;27;20046;-64
2022/11/22 10:42:40;;;;;;;5.10;1.20;;;7.50;99.90;;;;;;5131573;27;20039;-64
2022/11/22 10:45:07;;;;;;;4.53;1.08;;;7.50;99.90;;;;;;5115716;27;20039;-64
2022/11/22 10:47:34;;;;;;;4.10;1.08;;;7.60;99.90;;;;;;5133676;27;20041;-66
2022/11/22 10:50:01;;;;;;;3.67;1.23;;;7.60;99.90;;;;;;5134182;27;20378;-64
2022/11/22 10:52:27;;;;;;;5.47;1.13;;;7.70;99.90;;;;;;5134191;27;20090;-63
2022/11/22 10:54:54;;;;;;;5.35;1.20;;;7.80;99.90;;;;;;5134034;27;20351;-64
2022/11/22 10:57:21;;;;;;;6.03;1.27;;;7.90;99.90;;;;;;5134101;27;20043;-64
2022/11/22 10:59:48;;;;;;;6.15;1.10;;;7.80;99.90;;;;;;5098144;27;20095;-64
2022/11/22 11:02:15;;;;;;;6.25;1.77;;;7.90;99.90;;;;;;5134303;27;20043;-64
2022/11/22 11:04:42;;;;;;;4.20;1.20;;;8.00;99.90;;;;;;5133947;27;20039;-65
2022/11/22 11:07:08;;;;;;;7.15;1.70;;;8.10;99.90;;;;;;5133615;27;20089;-65
2022/11/22 11:09:38;;;;;;;6.15;1.33;;;8.10;99.90;;;;;;5127396;27;20454;-65
2022/11/22 11:12:25;;;;;;;5.70;1.52;;;8.20;99.90;;;;;;5133835;27;21000;-64
2022/11/22 11:14:52;;;;;;;6.90;1.77;;;8.30;99.90;;;;;;5115477;28;20402;-63
2022/11/22 11:17:18;;;;;;;5.70;1.65;;;8.40;99.90;;;;;;5111418;28;20047;-64
2022/11/22 11:19:45;;;;;;;9.23;2.10;;;8.50;99.90;;;;;;5133077;28;20073;-63
2022/11/22 11:22:12;;;;;;;6.85;1.92;;;8.60;99.90;;;;;;5133049;28;20050;-64
2022/11/22 11:24:39;;;;;;;7.28;1.77;;;8.60;99.90;;;;;;5133538;28;20042;-64
2022/11/22 11:27:05;;;;;;;6.57;1.95;;;8.70;99.90;;;;;;5133609;28;20035;-62
2022/11/22 11:29:32;;;;;;;6.47;1.90;;;8.80;99.90;;;;;;5130256;28;20035;-64
2022/11/22 11:32:03;;;;;;;8.57;2.10;;;8.80;99.90;;;;;;5128230;28;20786;-63
2022/11/22 11:34:30;;;;;;;8.70;2.45;;;8.90;99.90;;;;;;5133348;27;20059;-63
2022/11/22 11:36:57;;;;;;;5.82;1.67;;;8.90;99.90;;;;;;5133553;28;20031;-64
2022/11/22 11:39:24;;;;;;;6.53;2.00;;;9.00;99.90;;;;;;5133458;28;20123;-65
2022/11/22 11:41:51;;;;;;;6.32;2.20;;;9.00;99.90;;;;;;5128277;28;20130;-64
2022/11/22 11:44:17;;;;;;;7.65;2.00;;;9.00;99.90;;;;;;5133121;28;20049;-67
2022/11/22 11:46:44;;;;;;;8.80;1.92;;;9.10;99.90;;;;;;5133386;28;20051;-64
2022/11/22 11:49:11;;;;;;;6.68;1.65;;;9.10;99.90;;;;;;5133122;28;20039;-63
2022/11/22 11:51:38;;;;;;;7.07;1.85;;;9.20;99.90;;;;;;5133454;28;20043;-64
2022/11/22 11:54:04;;;;;;;3.97;1.40;;;9.30;99.90;;;;;;5134418;27;20558;-63
2022/11/22 11:56:31;;;;;;;7.45;1.52;;;9.30;99.90;;;;;;5119064;27;20050;-66
2022/11/22 11:58:58;;;;;;;4.35;1.40;;;9.30;99.90;;;;;;5118634;27;20428;-65
2022/11/22 12:01:25;;;;;;;7.63;1.98;;;9.40;99.90;;;;;;5136066;27;20085;-65
2022/11/22 12:03:51;;;;;;;6.28;1.55;;;9.40;99.90;;;;;;5137566;27;20054;-65
2022/11/22 12:06:18;;;;;;;5.60;1.58;;;9.40;99.90;;;;;;5137649;27;20054;-67
2022/11/22 12:08:45;;;;;;;5.13;1.30;;;9.40;99.90;;;;;;5137264;27;20442;-64
2022/11/22 12:11:12;;;;;;;6.45;2.05;;;9.40;99.90;;;;;;5138119;27;20051;-64
2022/11/22 12:13:38;;;;;;;6.53;1.65;;;9.40;99.90;;;;;;5137193;27;20039;-65
2022/11/22 12:16:25;;;;;;;4.82;1.27;;;9.30;99.90;;;;;;5122590;27;20091;-63
2022/11/22 12:18:52;;;;;;;5.20;1.70;;;9.30;99.90;;;;;;5137086;27;20047;-66
2022/11/22 12:21:18;;;;;;;4.78;1.50;;;9.20;99.90;;;;;;5135209;27;20043;-65
2022/11/22 12:23:45;;;;;;;7.13;2.35;;;9.10;99.90;;;;;;5117170;27;20039;-64
2022/11/22 12:26:16;;;;;;;7.40;1.92;;;9.10;99.90;;;;;;5116304;27;20391;-65
2022/11/22 12:28:43;;;;;;;7.97;1.92;;;9.00;99.90;;;;;;5134537;27;20077;-62
2022/11/22 12:31:10;;;;;;;8.68;1.88;;;9.10;99.90;;;;;;5134173;27;20486;-65
2022/11/22 12:33:41;;;;;;;6.03;1.70;;;9.10;99.90;;;;;;5135050;27;20082;-65
2022/11/22 12:36:07;;;;;;;8.75;2.22;;;9.20;99.90;;;;;;5135553;27;20122;-64
2022/11/22 12:38:34;;;;;;;6.45;1.67;;;9.30;99.90;;;;;;5136634;27;20039;-63
2022/11/22 12:41:01;;;;;;;5.95;1.70;;;9.40;99.90;;;;;;5136800;27;20126;-64
2022/11/22 12:43:28;;;;;;;5.00;1.85;;;9.40;99.90;;;;;;5136802;27;20050;-64
2022/11/22 12:45:55;;;;;;;5.38;1.85;;;9.50;99.90;;;;;;5136528;27;20039;-64
2022/11/22 12:48:21;;;;;;;6.55;1.65;;;9.50;99.90;;;;;;5136374;27;20043;-63
2022/11/22 12:50:49;;;;;;;6.35;1.90;;;9.50;99.90;;;;;;5136499;27;20031;-64
2022/11/22 12:53:16;;;;;;;4.05;1.63;;;9.60;99.90;;;;;;5136339;27;20039;-63
2022/11/22 12:55:43;;;;;;;4.25;1.40;;;9.60;99.90;;;;;;5136214;27;20110;-65
2022/11/22 12:58:10;;;;;;;7.85;1.60;;;9.70;99.90;;;;;;5135123;27;20439;-64
2022/11/22 13:00:36;;;;;;;11.57;2.13;;;9.70;99.90;;;;;;5135899;27;20095;-65
2022/11/22 13:03:03;;;;;;;8.27;1.63;;;9.70;99.90;;;;;;5131709;27;20107;-64
2022/11/22 13:05:30;;;;;;;5.65;1.73;;;9.70;99.90;;;;;;5130877;27;20126;-64
2022/11/22 13:07:57;;;;;;;8.18;1.80;;;9.70;99.90;;;;;;5132197;27;20061;-64
2022/11/22 13:10:24;;;;;;;8.57;1.88;;;9.70;99.90;;;;;;5134809;27;20074;-64